createdAt,value
2023-05-20T00:04:01.762Z,101156.84
2023-05-20T00:09:02.653Z,101158.75
2023-05-20T00:14:04.752Z,101151.13
2023-05-20T00:19:05.501Z,101150.38
2023-05-20T00:24:06.519Z,101149.50
2023-05-20T00:29:08.488Z,101126.91
2023-05-20T00:34:09.126Z,101133.25
2023-05-20T00:39:09.783Z,101133.13
2023-05-20T00:44:11.752Z,101131.41
2023-05-20T00:49:12.680Z,101131.47
2023-05-20T00:54:13.711Z,101136.66
2023-05-20T00:59:16.890Z,101135.88
2023-05-20T01:04:17.530Z,101139.34
2023-05-20T01:09:18.327Z,101138.50
2023-05-20T01:14:22.128Z,101147.19
2023-05-20T01:19:35.263Z,101144.72
2023-05-20T01:24:37.589Z,101135.16
2023-05-20T01:29:38.787Z,101133.53
2023-05-20T01:34:41.391Z,101144.84
2023-05-20T01:39:43.919Z,101140.41
2023-05-20T01:44:44.998Z,101142.16
2023-05-20T01:49:47.684Z,101147.34
2023-05-20T01:54:51.304Z,101142.03
2023-05-20T01:59:51.981Z,101136.84
2023-05-20T02:04:54.606Z,101123.00
2023-05-20T02:09:57.705Z,101134.41
2023-05-20T02:14:58.526Z,101137.81
2023-05-20T02:19:59.241Z,101135.25
2023-05-20T02:25:01.820Z,101142.28
2023-05-20T02:30:02.460Z,101133.53
2023-05-20T02:35:03.207Z,101136.13
2023-05-20T02:40:09.276Z,101128.41
2023-05-20T02:45:11.702Z,101134.56
2023-05-20T02:50:13.024Z,101125.00
2023-05-20T02:55:16.234Z,101117.13
2023-05-20T03:00:18.909Z,101111.16
2023-05-20T03:05:19.711Z,101086.00
2023-05-20T03:10:21.798Z,101086.03
2023-05-20T03:15:22.446Z,101104.41
2023-05-20T03:20:23.669Z,101098.41
2023-05-20T03:25:26.802Z,101094.91
2023-05-20T03:30:27.453Z,101101.00
2023-05-20T03:35:29.637Z,101107.84
2023-05-20T03:40:31.784Z,101097.44
2023-05-20T03:45:34.657Z,101108.59
2023-05-20T03:50:40.815Z,101106.75
2023-05-20T03:55:43.684Z,101114.47
2023-05-20T04:00:46.858Z,101110.91
2023-05-20T04:05:47.644Z,101109.94
2023-05-20T04:10:56.986Z,101108.13
2023-05-20T04:15:57.666Z,101104.63
2023-05-20T04:21:00.028Z,101109.84
2023-05-20T04:26:02.509Z,101107.09
2023-05-20T04:31:05.669Z,101116.59
2023-05-20T04:36:12.115Z,101115.59
2023-05-20T04:41:16.014Z,101114.63
2023-05-20T04:46:18.703Z,101113.69
2023-05-20T04:51:19.665Z,101120.44
2023-05-20T04:56:22.541Z,101107.97
2023-05-20T05:01:23.273Z,101105.94
2023-05-20T05:06:24.787Z,101108.44
2023-05-20T05:11:27.100Z,101101.09
2023-05-20T05:16:27.791Z,101100.22
2023-05-20T05:21:28.568Z,101103.47
2023-05-20T05:26:30.596Z,101097.09
2023-05-20T05:31:31.482Z,101098.66
2023-05-20T05:36:33.773Z,101103.41
2023-05-20T05:41:36.503Z,101099.81
2023-05-20T05:46:38.114Z,101101.31
2023-05-20T05:51:39.195Z,101096.47
2023-05-20T05:56:41.566Z,101093.19
2023-05-20T06:01:42.424Z,101086.09
2023-05-20T06:06:43.837Z,101078.22
2023-05-20T06:11:45.921Z,101073.28
2023-05-20T06:16:46.609Z,101080.22
2023-05-20T06:21:47.267Z,101086.00
2023-05-20T06:26:50.513Z,101085.16
2023-05-20T06:31:51.453Z,101075.59
2023-05-20T06:36:54.068Z,101084.72
2023-05-20T06:41:56.184Z,101071.81
2023-05-20T06:47:02.277Z,101081.34
2023-05-20T06:52:05.359Z,101069.44
2023-05-20T06:57:08.533Z,101050.22
2023-05-20T07:02:09.340Z,101044.84
2023-05-20T07:07:10.214Z,101042.94
2023-05-20T07:12:12.299Z,101035.56
2023-05-20T07:17:12.993Z,101031.72
2023-05-20T07:22:16.098Z,101036.50
2023-05-20T07:27:31.575Z,101035.75
2023-05-20T07:32:32.417Z,101028.94
2023-05-20T07:37:33.832Z,101021.75
2023-05-20T07:42:36.352Z,101000.75
2023-05-20T07:47:37.417Z,101004.56
2023-05-20T07:52:54.510Z,101008.47
2023-05-20T07:57:59.651Z,101004.44
2023-05-20T08:03:00.648Z,101017.84
2023-05-20T08:08:10.464Z,100998.25
2023-05-20T08:13:24.183Z,101000.03
2023-05-20T08:18:25.202Z,100992.81
2023-05-20T08:23:26.093Z,100983.09
2023-05-20T08:28:28.572Z,100989.81
2023-05-20T08:33:29.271Z,100982.84
2023-05-20T08:38:30.130Z,100977.25
2023-05-20T08:43:32.753Z,100962.09
2023-05-20T08:48:34.737Z,100943.97
2023-05-20T08:53:35.355Z,100948.94
2023-05-20T08:58:37.561Z,100947.28
2023-05-20T09:03:38.224Z,100950.50
2023-05-20T09:08:39.054Z,100949.34
2023-05-20T09:13:41.077Z,100954.78
2023-05-20T09:18:43.496Z,100947.09
2023-05-20T09:23:49.017Z,100941.75
2023-05-20T09:28:51.153Z,100945.28
2023-05-20T09:33:52.678Z,100938.59
2023-05-20T09:38:54.444Z,100935.97
2023-05-20T09:43:56.805Z,100935.94
2023-05-20T09:48:57.814Z,100926.94
2023-05-20T09:53:59.157Z,100912.44
2023-05-20T09:59:03.589Z,100902.03
2023-05-20T10:04:06.860Z,100906.66
2023-05-20T10:09:24.214Z,100901.72
2023-05-20T10:14:39.693Z,100896.97
2023-05-20T10:19:42.440Z,100881.53
2023-05-20T10:24:45.058Z,100877.91
2023-05-20T10:29:52.066Z,100880.19
2023-05-20T10:34:53.336Z,100866.78
2023-05-20T10:39:54.053Z,100865.94
2023-05-20T10:44:56.035Z,100850.88
2023-05-20T10:49:56.773Z,100870.22
2023-05-20T10:54:58.737Z,100861.81
2023-05-20T11:00:01.335Z,100847.66
2023-05-20T11:05:04.031Z,100839.06
2023-05-20T11:10:09.912Z,100835.28
2023-05-20T11:15:13.970Z,100823.94
2023-05-20T11:20:15.683Z,100828.59
2023-05-20T11:25:16.869Z,100834.16
2023-05-20T11:30:20.556Z,100825.34
2023-05-20T11:35:24.095Z,100803.84
2023-05-20T11:40:30.583Z,100792.69
2023-05-20T11:45:42.208Z,100789.47
2023-05-20T11:50:44.431Z,100784.41
2023-05-20T11:55:50.158Z,100781.34
2023-05-20T12:00:59.053Z,100782.63
2023-05-20T12:06:03.470Z,100771.00
2023-05-20T12:11:04.162Z,100756.78
2023-05-20T12:16:06.851Z,100758.59
2023-05-20T12:21:07.665Z,100750.22
2023-05-20T12:26:08.371Z,100739.09
2023-05-20T12:31:10.479Z,100736.63
2023-05-20T12:36:11.351Z,100730.19
2023-05-20T12:41:12.132Z,100712.56
2023-05-20T12:46:14.252Z,100707.72
2023-05-20T12:51:14.929Z,100698.63
2023-05-20T12:56:15.647Z,100699.38
2023-05-20T13:01:17.710Z,100710.84
2023-05-20T13:06:18.484Z,100701.72
2023-05-20T13:11:19.285Z,100693.97
2023-05-20T13:16:21.488Z,100688.75
2023-05-20T13:21:22.313Z,100685.28
2023-05-20T13:26:23.557Z,100673.88
2023-05-20T13:31:25.742Z,100665.75
2023-05-20T13:36:26.505Z,100663.09
2023-05-20T13:41:27.680Z,100653.06
2023-05-20T13:46:29.815Z,100642.59
2023-05-20T13:51:31.965Z,100638.41
2023-05-20T13:56:32.861Z,100637.06
2023-05-20T14:01:35.130Z,100637.56
2023-05-20T14:06:36.001Z,100634.72
2023-05-20T14:11:37.081Z,100619.59
2023-05-20T14:16:39.624Z,100610.38
2023-05-20T14:21:40.508Z,100615.47
2023-05-20T14:26:41.206Z,100611.97
2023-05-20T14:31:43.608Z,100605.84
2023-05-20T14:36:44.830Z,100592.94
2023-05-20T14:41:45.545Z,100589.47
2023-05-20T14:46:47.616Z,100596.09
2023-05-20T14:51:48.457Z,100623.06
2023-05-20T14:56:49.998Z,100599.59
2023-05-20T15:01:52.280Z,100611.63
2023-05-20T15:06:53.624Z,100600.44
2023-05-20T15:11:54.570Z,100597.47
2023-05-20T15:16:56.754Z,100601.84
2023-05-20T15:21:57.568Z,100573.22
2023-05-20T15:26:58.259Z,100571.53
2023-05-20T15:32:00.493Z,100574.66
2023-05-20T15:37:01.193Z,100570.28
2023-05-20T15:42:02.949Z,100556.19
2023-05-20T15:47:06.240Z,100559.34
2023-05-20T15:52:07.462Z,100556.59
2023-05-20T15:57:08.182Z,100549.78
2023-05-20T16:02:10.235Z,100562.69
2023-05-20T16:07:10.989Z,100559.69
2023-05-20T16:12:12.324Z,100554.47
2023-05-20T16:17:14.454Z,100547.50
2023-05-20T16:22:16.338Z,100557.94
2023-05-20T16:27:17.077Z,100540.41
2023-05-20T16:32:20.184Z,100540.28
2023-05-20T16:37:21.040Z,100565.22
2023-05-20T16:42:22.890Z,100557.09
2023-05-20T16:47:24.993Z,100560.34
2023-05-20T16:52:26.057Z,100561.00
2023-05-20T16:57:26.760Z,100577.66
2023-05-20T17:02:28.931Z,100564.28
2023-05-20T17:07:29.657Z,100558.53
2023-05-20T17:12:30.442Z,100574.16
2023-05-20T17:17:32.509Z,100561.38
2023-05-20T17:22:33.276Z,100580.28
2023-05-20T17:27:33.984Z,100591.19
2023-05-20T17:32:36.223Z,100591.72
2023-05-20T17:37:37.673Z,100593.75
2023-05-20T17:42:38.452Z,100587.53
2023-05-20T17:47:40.543Z,100602.41
2023-05-20T17:52:41.297Z,100616.66
2023-05-20T17:57:41.983Z,100628.97
2023-05-20T18:02:48.014Z,100635.69
2023-05-20T18:07:48.780Z,100640.22
2023-05-20T18:12:49.664Z,100634.00
2023-05-20T18:17:51.768Z,100634.16
2023-05-20T18:22:58.189Z,100635.97
2023-05-20T18:27:58.908Z,100648.84
2023-05-20T18:33:01.001Z,100655.53
2023-05-20T18:38:01.822Z,100659.25
2023-05-20T18:43:02.537Z,100672.44
2023-05-20T18:48:05.223Z,100663.75
2023-05-20T18:53:06.016Z,100665.66
2023-05-20T18:58:06.751Z,100666.75
2023-05-20T19:03:08.815Z,100676.16
2023-05-20T19:08:09.515Z,100680.06
2023-05-20T19:13:10.308Z,100689.41
2023-05-20T19:18:13.505Z,100683.00
2023-05-20T19:23:14.199Z,100684.91
2023-05-20T19:28:14.883Z,100693.28
2023-05-20T19:33:17.040Z,100689.31
2023-05-20T19:38:17.845Z,100686.06
2023-05-20T19:43:18.535Z,100688.88
2023-05-20T19:48:22.244Z,100701.63
2023-05-20T19:53:23.290Z,100718.53
2023-05-20T19:58:23.995Z,100713.59
2023-05-20T20:03:26.033Z,100715.88
2023-05-20T20:08:26.844Z,100720.22
2023-05-20T20:13:27.610Z,100708.41
2023-05-20T20:18:29.788Z,100702.28
2023-05-20T20:23:30.511Z,100705.34
2023-05-20T20:28:31.221Z,100706.81
2023-05-20T20:33:33.305Z,100704.84
2023-05-20T20:38:34.052Z,100700.94
2023-05-20T20:43:38.093Z,100711.00
2023-05-20T20:48:40.153Z,100713.00
2023-05-20T20:53:42.137Z,100707.13
2023-05-20T20:58:44.968Z,100704.53
2023-05-20T21:03:48.386Z,100703.78
2023-05-20T21:08:49.153Z,100694.91
2023-05-20T21:13:49.852Z,100691.84
2023-05-20T21:18:51.962Z,100692.22
2023-05-20T21:23:54.193Z,100690.03
2023-05-20T21:28:54.864Z,100693.25
2023-05-20T21:33:56.858Z,100686.44
2023-05-20T21:38:57.701Z,100682.31
2023-05-20T21:43:58.417Z,100679.88
2023-05-20T21:49:00.455Z,100679.47
2023-05-20T21:54:01.159Z,100677.03
2023-05-20T21:59:04.569Z,100674.66
2023-05-20T22:04:06.997Z,100679.94
2023-05-20T22:09:07.783Z,100681.91
2023-05-20T22:14:08.555Z,100684.66
2023-05-20T22:19:10.866Z,100673.47
2023-05-20T22:24:12.142Z,100679.66
2023-05-20T22:29:12.961Z,100680.06
2023-05-20T22:34:15.111Z,100670.69
2023-05-20T22:39:16.036Z,100668.47
2023-05-20T22:44:16.773Z,100662.50
2023-05-20T22:49:19.825Z,100670.50
2023-05-20T22:54:20.809Z,100661.94
2023-05-20T22:59:21.476Z,100657.06
2023-05-20T23:04:23.594Z,100650.00
2023-05-20T23:09:24.382Z,100650.94
2023-05-20T23:14:25.120Z,100649.53
2023-05-20T23:19:27.208Z,100643.66
2023-05-20T23:24:28.004Z,100650.00
2023-05-20T23:29:28.956Z,100652.69
2023-05-20T23:34:31.596Z,100648.59
2023-05-20T23:39:32.278Z,100645.91
2023-05-20T23:44:32.947Z,100647.78
2023-05-20T23:49:37.176Z,100642.84
2023-05-20T23:54:37.880Z,100638.56
2023-05-20T23:59:38.689Z,100630.75
